Time;durP1;ratioP1;P1;durP2;ratioP2;P2;SDS_P1;SDS_P2;PMS_P1;PMS_P2;Temp;Humidity;BMP_temperature;BMP_pressure;BME280_temperature;BME280_humidity;BME280_pressure;Samples;Min_cycle;Max_cycle;Signal;HPM_P1;HPM_P2
2024/02/18 06:17:15;;;;;;;;;;;;;;;;;;5494005;22;7987;-72
2024/02/18 06:19:40;;;;;;;;;;;;;;;;;;4994541;28;7514;-72
2024/02/18 06:22:05;;;;;;;;;;;;;;;;;;5013721;28;7539;-72
2024/02/18 06:24:30;;;;;;;;;;;;;;;;;;5013663;28;7522;-72
2024/02/18 06:26:55;;;;;;;;;;;;;;;;;;5013570;28;7528;-71
2024/02/18 06:29:21;;;;;;;;;;;;;;;;;;5014003;28;7530;-71
2024/02/18 06:31:46;;;;;;;;;;;;;;;;;;5013324;28;7518;-72
2024/02/18 06:34:11;;;;;;;;;;;;;;;;;;5013412;28;7529;-71
2024/02/18 06:36:38;;;;;;;;;;;;;;;;;;5013449;28;7518;-72
2024/02/18 06:39:03;;;;;;;;;;;;;;;;;;4995765;28;7530;-76
2024/02/18 06:41:28;;;;;;;;;;;;;;;;;;4995675;28;7540;-72
2024/02/18 06:43:53;;;;;;;;;;;;;;;;;;5013231;28;7992;-65
2024/02/18 06:46:18;;;;;;;;;;;;;;;;;;5013248;28;7529;-66
2024/02/18 06:48:44;;;;;;;;;;;;;;;;;;5013294;28;7546;-65
2024/02/18 06:51:09;;;;;;;;;;;;;;;;;;5013244;28;7532;-66
2024/02/18 06:53:34;;;;;;;;;;;;;;;;;;5013341;28;8014;-66
2024/02/18 06:55:59;;;;;;;;;;;;;;;;;;5013192;28;7517;-66
2024/02/18 06:58:24;;;;;;;;;;;;;;;;;;5013126;28;7521;-65
2024/02/18 07:00:49;;;;;;;;;;;;;;;;;;5013073;28;7968;-67
2024/02/18 07:03:15;;;;;;;;;;;;;;;;;;5013253;28;7525;-66
2024/02/18 07:05:40;;;;;;;;;;;;;;;;;;5014440;28;7526;-67
2024/02/18 07:08:06;;;;;;;;;;;;;;;;;;5021344;28;7521;-66
2024/02/18 07:10:32;;;;;;;;;;;;;;;;;;5003966;28;7540;-68
2024/02/18 07:12:57;;;;;;;;;;;;;;;;;;5002460;28;7537;-69
2024/02/18 07:15:22;;;;;;;;;;;;;;;;;;5020244;28;7619;-70
2024/02/18 07:17:47;;;;;;;;;;;;;;;;;;5021446;28;7556;-72
2024/02/18 07:20:14;;;;;;;;;;;;;;;;;;5019320;28;7525;-71
2024/02/18 07:22:39;;;;;;;;;;;;;;;;;;5002903;28;7645;-73
2024/02/18 07:25:06;;;;;;;;;;;;;;;;;;5021166;28;7526;-68
2024/02/18 07:27:31;;;;;;;;;;;;;;;;;;5020505;28;7534;-69
2024/02/18 07:29:56;;;;;;;;;;;;;;;;;;5004895;28;7517;-70
2024/02/18 07:32:22;;;;;;;;;;;;;;;;;;5022436;28;7543;-70
2024/02/18 07:34:47;;;;;;;;;;;;;;;;;;5003303;28;7616;-71
2024/02/18 07:37:12;;;;;;;;;;;;;;;;;;5020785;28;7636;-73
2024/02/18 07:39:37;;;;;;;;;;;;;;;;;;5004065;28;7529;-74
2024/02/18 07:42:03;;;;;;;;;;;;;;;;;;5005202;28;7529;-73
2024/02/18 07:44:28;;;;;;;;;;;;;;;;;;5020966;28;7522;-74
2024/02/18 07:46:54;;;;;;;;;;;;;;;;;;5029395;28;7632;-73
2024/02/18 07:49:20;;;;;;;;;;;;;;;;;;5017251;28;7522;-74
2024/02/18 07:51:45;;;;;;;;;;;;;;;;;;5012004;28;7521;-72
2024/02/18 07:54:10;;;;;;;;;;;;;;;;;;5010437;28;7552;-71
2024/02/18 07:56:35;;;;;;;;;;;;;;;;;;5009171;28;7537;-73
2024/02/18 07:59:01;;;;;;;;;;;;;;;;;;5009032;28;7537;-73
2024/02/18 08:01:26;;;;;;;;;;;;;;;;;;5010415;28;7698;-71
2024/02/18 08:03:51;;;;;;;;;;;;;;;;;;5014514;28;7525;-68
2024/02/18 08:06:17;;;;;;;;;;;;;;;;;;5010486;28;7529;-69
2024/02/18 08:08:42;;;;;;;;;;;;;;;;;;5010662;28;7943;-70
2024/02/18 08:11:07;;;;;;;;;;;;;;;;;;5025818;28;7525;-67
2024/02/18 08:13:32;;;;;;;;;;;;;;;;;;5031985;28;7533;-70
2024/02/18 08:15:58;;;;;;;;;;;;;;;;;;5032524;28;7532;-69
2024/02/18 08:18:24;;;;;;;;;;;;;;;;;;5031910;28;7540;-68
2024/02/18 08:20:49;;;;;;;;;;;;;;;;;;5012966;28;7522;-69
2024/02/18 08:23:14;;;;;;;;;;;;;;;;;;5012267;28;7600;-70
2024/02/18 08:25:40;;;;;;;;;;;;;;;;;;5012199;28;7525;-71
2024/02/18 08:28:05;;;;;;;;;;;;;;;;;;5010876;28;7596;-70
2024/02/18 08:30:30;;;;;;;;;;;;;;;;;;5012241;28;7522;-70
2024/02/18 08:32:55;;;;;;;;;;;;;;;;;;5012421;28;7525;-67
2024/02/18 08:35:21;;;;;;;;;;;;;;;;;;5011942;28;7520;-69
2024/02/18 08:37:48;;;;;;;;;;;;;;;;;;5012059;28;8011;-75
2024/02/18 08:40:14;;;;;;;;;;;;;;;;;;5016549;28;7541;-68
2024/02/18 08:42:39;;;;;;;;;;;;;;;;;;5029454;28;7545;-69
2024/02/18 08:45:05;;;;;;;;;;;;;;;;;;5026811;28;7536;-68
2024/02/18 08:47:30;;;;;;;;;;;;;;;;;;5034580;28;7540;-69
2024/02/18 08:49:55;;;;;;;;;;;;;;;;;;5005790;28;7521;-68
2024/02/18 08:52:20;;;;;;;;;;;;;;;;;;5033247;28;7530;-71
2024/02/18 08:54:45;;;;;;;;;;;;;;;;;;5021050;28;7510;-69
2024/02/18 08:57:10;;;;;;;;;;;;;;;;;;5013342;28;7525;-69
2024/02/18 08:59:35;;;;;;;;;;;;;;;;;;4997135;28;7522;-69
2024/02/18 09:02:01;;;;;;;;;;;;;;;;;;5014974;28;7537;-68
2024/02/18 09:04:26;;;;;;;;;;;;;;;;;;5013792;28;7545;-67
2024/02/18 09:06:51;;;;;;;;;;;;;;;;;;5011556;28;7521;-67
2024/02/18 09:09:16;;;;;;;;;;;;;;;;;;5014136;28;7576;-69
2024/02/18 09:11:43;;;;;;;;;;;;;;;;;;5015015;28;7536;-69
2024/02/18 09:14:09;;;;;;;;;;;;;;;;;;5015009;28;7525;-69
2024/02/18 09:16:34;;;;;;;;;;;;;;;;;;5014091;28;7533;-70
2024/02/18 09:18:59;;;;;;;;;;;;;;;;;;4996930;28;7525;-70
2024/02/18 09:21:24;;;;;;;;;;;;;;;;;;5014708;28;7544;-70
2024/02/18 09:23:50;;;;;;;;;;;;;;;;;;5014792;28;7608;-69
2024/02/18 09:26:15;;;;;;;;;;;;;;;;;;5012727;28;7597;-70
2024/02/18 09:28:40;;;;;;;;;;;;;;;;;;5016202;28;7621;-70
2024/02/18 09:31:07;;;;;;;;;;;;;;;;;;5014469;28;7518;-70
2024/02/18 09:33:32;;;;;;;;;;;;;;;;;;5014499;28;7514;-70
2024/02/18 09:35:57;;;;;;;;;;;;;;;;;;5014332;28;7532;-70
2024/02/18 09:38:22;;;;;;;;;;;;;;;;;;5015221;28;7513;-69
2024/02/18 09:40:48;;;;;;;;;;;;;;;;;;5010965;28;7526;-69
2024/02/18 09:43:13;;;;;;;;;;;;;;;;;;5014256;28;7517;-71
2024/02/18 09:45:38;;;;;;;;;;;;;;;;;;5014294;28;7528;-73
2024/02/18 09:48:04;;;;;;;;;;;;;;;;;;5013011;28;7538;-76
2024/02/18 09:50:33;;;;;;;;;;;;;;;;;;5023096;28;7530;-80
2024/02/18 09:53:00;;;;;;;;;;;;;;;;;;5023979;28;7522;-80
2024/02/18 09:55:25;;;;;;;;;;;;;;;;;;5026745;28;7509;-80
2024/02/18 09:57:50;;;;;;;;;;;;;;;;;;5007998;28;7532;-79
2024/02/18 10:00:15;;;;;;;;;;;;;;;;;;5026433;28;7612;-81
2024/02/18 10:02:40;;;;;;;;;;;;;;;;;;5022190;28;7537;-81
2024/02/18 10:05:06;;;;;;;;;;;;;;;;;;5021209;28;7522;-84
2024/02/18 10:07:31;;;;;;;;;;;;;;;;;;5018185;28;7541;-82
2024/02/18 10:09:57;;;;;;;;;;;;;;;;;;5022707;28;7514;-79
2024/02/18 10:12:23;;;;;;;;;;;;;;;;;;5024274;28;7536;-82
2024/02/18 10:14:49;;;;;;;;;;;;;;;;;;5021637;28;7530;-79
2024/02/18 10:17:14;;;;;;;;;;;;;;;;;;5017749;28;7521;-77
2024/02/18 10:19:39;;;;;;;;;;;;;;;;;;5000091;28;7514;-79
2024/02/18 10:22:05;;;;;;;;;;;;;;;;;;5013921;28;7534;-82
2024/02/18 10:24:31;;;;;;;;;;;;;;;;;;5013996;28;7537;-82
2024/02/18 10:26:56;;;;;;;;;;;;;;;;;;4994774;28;7542;-82
2024/02/18 10:29:21;;;;;;;;;;;;;;;;;;5033787;28;7521;-82
2024/02/18 10:31:46;;;;;;;;;;;;;;;;;;5033729;28;7525;-81
2024/02/18 10:34:12;;;;;;;;;;;;;;;;;;5033202;28;8006;-72
2024/02/18 10:36:37;;;;;;;;;;;;;;;;;;5030373;28;7544;-82
2024/02/18 10:39:07;;;;;;;;;;;;;;;;;;5014858;28;7530;-80
2024/02/18 10:41:34;;;;;;;;;;;;;;;;;;5033399;28;7517;-78
2024/02/18 10:43:59;;;;;;;;;;;;;;;;;;5033072;28;7509;-81
2024/02/18 10:46:24;;;;;;;;;;;;;;;;;;5029727;28;7510;-76
2024/02/18 10:48:50;;;;;;;;;;;;;;;;;;5025601;28;7532;-71
2024/02/18 10:51:15;;;;;;;;;;;;;;;;;;5018466;28;7521;-76
2024/02/18 10:53:40;;;;;;;;;;;;;;;;;;5005947;28;7533;-74
2024/02/18 10:56:05;;;;;;;;;;;;;;;;;;5032653;28;7517;-78
2024/02/18 10:58:30;;;;;;;;;;;;;;;;;;5012469;28;7525;-78
2024/02/18 11:00:55;;;;;;;;;;;;;;;;;;5012774;28;7514;-72
2024/02/18 11:03:20;;;;;;;;;;;;;;;;;;5012599;28;7548;-75
2024/02/18 11:05:45;;;;;;;;;;;;;;;;;;5012543;28;7529;-81
2024/02/18 11:08:11;;;;;;;;;;;;;;;;;;5012818;28;7517;-76
2024/02/18 11:10:39;;;;;;;;;;;;;;;;;;4997800;28;7601;-77
2024/02/18 11:13:04;;;;;;;;;;;;;;;;;;4993549;28;7529;-76
2024/02/18 11:15:29;;;;;;;;;;;;;;;;;;4993122;28;7518;-77
2024/02/18 11:17:54;;;;;;;;;;;;;;;;;;4992986;28;7617;-77
2024/02/18 11:20:22;;;;;;;;;;;;;;;;;;5006758;28;7521;-78
2024/02/18 11:22:47;;;;;;;;;;;;;;;;;;5012518;28;7518;-77
2024/02/18 11:25:13;;;;;;;;;;;;;;;;;;5012652;28;7542;-76
2024/02/18 11:27:38;;;;;;;;;;;;;;;;;;5012595;28;7517;-77
2024/02/18 11:30:04;;;;;;;;;;;;;;;;;;5012559;28;7620;-77
2024/02/18 11:32:29;;;;;;;;;;;;;;;;;;5011378;28;7518;-76
2024/02/18 11:34:55;;;;;;;;;;;;;;;;;;5012314;28;7591;-77
2024/02/18 11:37:20;;;;;;;;;;;;;;;;;;5012463;28;7517;-76
2024/02/18 11:39:45;;;;;;;;;;;;;;;;;;5012404;28;7564;-75
2024/02/18 11:42:14;;;;;;;;;;;;;;;;;;5012436;28;7533;-76
2024/02/18 11:44:39;;;;;;;;;;;;;;;;;;5012474;28;7517;-76
2024/02/18 11:47:04;;;;;;;;;;;;;;;;;;5012303;28;7530;-76
2024/02/18 11:49:30;;;;;;;;;;;;;;;;;;5012205;28;7510;-75
2024/02/18 11:51:55;;;;;;;;;;;;;;;;;;5012429;28;7522;-75
2024/02/18 11:54:21;;;;;;;;;;;;;;;;;;5012318;28;7536;-76
2024/02/18 11:56:46;;;;;;;;;;;;;;;;;;5012309;28;7518;-76
2024/02/18 11:59:11;;;;;;;;;;;;;;;;;;5012354;28;7532;-76
2024/02/18 12:01:36;;;;;;;;;;;;;;;;;;5012358;28;7537;-76
2024/02/18 12:04:01;;;;;;;;;;;;;;;;;;5012241;28;7521;-76
2024/02/18 12:06:26;;;;;;;;;;;;;;;;;;5012307;28;7525;-75
2024/02/18 12:08:51;;;;;;;;;;;;;;;;;;5012148;28;7513;-76
2024/02/18 12:11:17;;;;;;;;;;;;;;;;;;5012491;28;7595;-75
2024/02/18 12:13:42;;;;;;;;;;;;;;;;;;5013060;28;7522;-76
2024/02/18 12:16:07;;;;;;;;;;;;;;;;;;5015859;28;7528;-75
2024/02/18 12:18:32;;;;;;;;;;;;;;;;;;5014970;28;7544;-76
2024/02/18 12:20:58;;;;;;;;;;;;;;;;;;5014340;28;7516;-75
2024/02/18 12:23:23;;;;;;;;;;;;;;;;;;5014432;28;7545;-74
2024/02/18 12:25:48;;;;;;;;;;;;;;;;;;5014912;28;7514;-75
2024/02/18 12:28:13;;;;;;;;;;;;;;;;;;5014632;28;7506;-75
2024/02/18 12:30:38;;;;;;;;;;;;;;;;;;5015997;28;7525;-74
2024/02/18 12:33:04;;;;;;;;;;;;;;;;;;5015645;28;7593;-74
2024/02/18 12:35:29;;;;;;;;;;;;;;;;;;5013988;28;7528;-74
2024/02/18 12:37:54;;;;;;;;;;;;;;;;;;5015527;28;7525;-74
2024/02/18 12:40:19;;;;;;;;;;;;;;;;;;5015514;28;7524;-73
2024/02/18 12:42:44;;;;;;;;;;;;;;;;;;5015615;28;7617;-74
2024/02/18 12:45:10;;;;;;;;;;;;;;;;;;5014361;28;7514;-74
2024/02/18 12:47:35;;;;;;;;;;;;;;;;;;5015334;28;7513;-74
2024/02/18 12:50:00;;;;;;;;;;;;;;;;;;5015028;28;7517;-73
2024/02/18 12:52:25;;;;;;;;;;;;;;;;;;5015451;28;7518;-73
2024/02/18 12:54:50;;;;;;;;;;;;;;;;;;5015175;28;7517;-74
2024/02/18 12:57:15;;;;;;;;;;;;;;;;;;5015130;28;7521;-73
2024/02/18 12:59:41;;;;;;;;;;;;;;;;;;5013731;28;7514;-73
2024/02/18 13:02:09;;;;;;;;;;;;;;;;;;5015003;28;7525;-74
2024/02/18 13:04:34;;;;;;;;;;;;;;;;;;5014857;28;7522;-72
2024/02/18 13:07:04;;;;;;;;;;;;;;;;;;5015018;28;7536;-74
2024/02/18 13:09:29;;;;;;;;;;;;;;;;;;5014896;28;7517;-73
2024/02/18 13:11:54;;;;;;;;;;;;;;;;;;5014841;28;7514;-73
2024/02/18 13:14:19;;;;;;;;;;;;;;;;;;5014803;28;7517;-73
2024/02/18 13:16:45;;;;;;;;;;;;;;;;;;5013856;28;7564;-74
2024/02/18 13:19:11;;;;;;;;;;;;;;;;;;5013006;28;7532;-73
2024/02/18 13:21:36;;;;;;;;;;;;;;;;;;5014600;28;7552;-73
2024/02/18 13:24:01;;;;;;;;;;;;;;;;;;5014535;28;7522;-73
2024/02/18 13:26:26;;;;;;;;;;;;;;;;;;5014446;28;7517;-73
2024/02/18 13:28:53;;;;;;;;;;;;;;;;;;5014585;28;7520;-73
2024/02/18 13:31:18;;;;;;;;;;;;;;;;;;5013220;28;7522;-73
2024/02/18 13:33:43;;;;;;;;;;;;;;;;;;5014541;28;7526;-73
2024/02/18 13:36:08;;;;;;;;;;;;;;;;;;5014317;28;7523;-73
2024/02/18 13:38:33;;;;;;;;;;;;;;;;;;5012985;28;7518;-74
2024/02/18 13:40:58;;;;;;;;;;;;;;;;;;5014308;28;7510;-74
2024/02/18 13:43:23;;;;;;;;;;;;;;;;;;5013046;28;7612;-74
2024/02/18 13:45:49;;;;;;;;;;;;;;;;;;5014465;28;7518;-72
2024/02/18 13:48:14;;;;;;;;;;;;;;;;;;5014479;28;7529;-73
2024/02/18 13:50:39;;;;;;;;;;;;;;;;;;5014128;28;7524;-73
2024/02/18 13:53:04;;;;;;;;;;;;;;;;;;5014169;28;7584;-73
2024/02/18 13:55:29;;;;;;;;;;;;;;;;;;5014150;28;7525;-73
2024/02/18 13:57:55;;;;;;;;;;;;;;;;;;5014364;28;7529;-73
2024/02/18 14:00:20;;;;;;;;;;;;;;;;;;5014084;28;7518;-72
2024/02/18 14:02:45;;;;;;;;;;;;;;;;;;5013999;28;7625;-73
2024/02/18 14:05:10;;;;;;;;;;;;;;;;;;5012314;28;7642;-72
2024/02/18 14:07:38;;;;;;;;;;;;;;;;;;5013915;28;7533;-72
2024/02/18 14:10:03;;;;;;;;;;;;;;;;;;5013920;28;7616;-73
2024/02/18 14:12:29;;;;;;;;;;;;;;;;;;5012749;28;7521;-72
2024/02/18 14:14:54;;;;;;;;;;;;;;;;;;5012603;28;7537;-72
2024/02/18 14:17:19;;;;;;;;;;;;;;;;;;5014324;28;7533;-71
2024/02/18 14:19:44;;;;;;;;;;;;;;;;;;5008800;28;7972;-71
2024/02/18 14:22:10;;;;;;;;;;;;;;;;;;4995862;28;7537;-72
2024/02/18 14:24:35;;;;;;;;;;;;;;;;;;5010446;28;7522;-72
2024/02/18 14:27:00;;;;;;;;;;;;;;;;;;5013353;28;7514;-71
2024/02/18 14:29:26;;;;;;;;;;;;;;;;;;5013395;28;7517;-73
2024/02/18 14:31:51;;;;;;;;;;;;;;;;;;5013654;28;7536;-73
2024/02/18 14:34:16;;;;;;;;;;;;;;;;;;4995545;28;7968;-73
2024/02/18 14:36:44;;;;;;;;;;;;;;;;;;5012477;28;7522;-73
2024/02/18 14:39:09;;;;;;;;;;;;;;;;;;4995455;28;7609;-73
2024/02/18 14:41:37;;;;;;;;;;;;;;;;;;5013104;28;7620;-74
2024/02/18 14:44:02;;;;;;;;;;;;;;;;;;5013127;28;7517;-73
2024/02/18 14:46:27;;;;;;;;;;;;;;;;;;5013052;28;7514;-74
2024/02/18 14:48:52;;;;;;;;;;;;;;;;;;5015855;28;7525;-73
2024/02/18 14:51:23;;;;;;;;;;;;;;;;;;5032500;28;7539;-74
2024/02/18 14:53:51;;;;;;;;;;;;;;;;;;5032402;28;7525;-73
2024/02/18 14:56:16;;;;;;;;;;;;;;;;;;5032276;28;7600;-74
2024/02/18 14:58:41;;;;;;;;;;;;;;;;;;5032701;28;7525;-74
2024/02/18 15:01:06;;;;;;;;;;;;;;;;;;5032618;28;7525;-73
2024/02/18 15:03:31;;;;;;;;;;;;;;;;;;5032597;28;7541;-73
2024/02/18 15:05:56;;;;;;;;;;;;;;;;;;5032216;28;7539;-73
2024/02/18 15:08:22;;;;;;;;;;;;;;;;;;5032235;28;8076;-73
